AirNav   Pilot Hours Calculator
 
 497 users online  

N09 Northfield Heliport
Thomaston, Connecticut, USA

GOING TO THOMASTON?


FAA INFORMATION EFFECTIVE 14 JULY 2022

Location

FAA Identifier: N09
Lat/Long: 41-43-25.3490N 073-06-56.3960W
41-43.422483N 073-06.939933W
41.7237081,-73.1156656
(estimated)
Elevation: 903 ft. / 275 m (estimated)
Variation: 14W (1985)
From city: 4 miles NW of THOMASTON, CT
Time zone: UTC -4 (UTC -5 during Standard Time)
Zip code: 06787

Heliport Operations

Heliport use: Open to the public
Activation date: 03/1977
Control tower: no
ARTCC: BOSTON CENTER
FSS: BRIDGEPORT FLIGHT SERVICE STATION
NOTAMs facility: BDR (NOTAM-D service available)
Attendance: UNATNDD
Wind indicator: yes
Segmented circle: no

Heliport Communications

CTAF: 122.9
WX AWOS-AV at CT71 (14 nm E): 129.825
WX AWOS-3PT at OXC (15 nm S): 132.975 (203-262-1190)
WX ASOS at MMK (18 nm SE): 134.925 (203-639-9405)

Nearby radio navigation aids

VOR radial/distance  VOR name  Freq  Var
PWLr109/21.9PAWLING VOR/DME114.3012W
HFDr294/25.9HARTFORD VOR/DME114.9013W
MADr335/31.1MADISON VOR/DME110.4013W
BAFr228/31.8BARNES VORTAC113.0014W
IGNr096/31.8KINGSTON VOR/DME117.6012W
BDRr013/33.8BRIDGEPORT VOR/DME108.8012W
CMKr050/33.9CARMEL VOR/DME116.6012W
CTRr205/34.9CHESTER VOR/DME115.1013W

Heliport Services

Airframe service: NONE
Powerplant service: NONE
Bottled oxygen: NONE
Bulk oxygen: NONE

Runway Information

Helipad H1

Dimensions: 100 x 100 ft. / 30 x 30 m
Surface: turf, in good condition
Latitude: 41-43.422483N
Longitude: 073-06.939933W
Elevation: 903.0 ft.
Traffic pattern: leftleft

Heliport Ownership and Management from official FAA records

Ownership: Privately-owned
Owner: BURT WEEKS
253 NEWTON RD
THOMASTON, CT 06787
Phone 860-283-9632
Manager: GARY WEEKS
261 NEWTON RD
THOMASTON, CT 06787
Phone 860-283-9490

Additional Remarks

A52-H1 N APCH OBSTRUCTED BY 30 FT TREES 260 FT S OF PAD; APCH RATIO 8:1. S APCH OBSTRUCTED BY 55 FT TREES 500 FT N OF PAD; APCH RATIO 9:1.
HEL CLSD INDEFLY.
FOR CD CTC YANKEE APCH AT 860-386-3597

Instrument Procedures

There are no published instrument procedures at N09.

Some nearby airports with instrument procedures:

4B8 - Robertson Field Airport (11 nm E)
KOXC - Waterbury-Oxford Airport (15 nm S)
KMMK - Meriden Markham Municipal Airport (18 nm SE)
KHFD - Hartford-Brainard Airport (21 nm E)
KBDL - Bradley International Airport (23 nm NE)
 
Loc | Ops | Rwys | IFR | FBO | Links
Com | Nav | Svcs | Stats | Notes

Silver City Flying Club
 
Area around N09 (Northfield Heliport)
 
Road maps at: MapQuest Bing Google
 
Aerial photo
No photo
 
Sectional chart

 
Airport distance calculator
Flying to Northfield Heliport? Find the distance to fly.

From to N09

Sunrise and sunset
Times for 11-Aug-2022
 Local
(UTC-4)
 Zulu
(UTC)
Morning civil twilight05:2709:27
Sunrise05:5809:58
Sunset19:5823:58
Evening civil twilight20:2800:28

Current date and time
Zulu (UTC)  11-Aug-2022 07:16:21
Local (UTC-4)  11-Aug-2022 03:16:21
 
METAR
KOXC 
15nm S 
110651Z AUTO 00000KT 8SM BKN065 21/20 A2999 RMK AO2 SLP160 T02060200
KMMK 
18nm SE 
110653Z AUTO 00000KT 10SM FEW030 FEW035 SCT070 23/21 A2996 RMK AO2 SLP142 T02280206
KHFD 
21nm E 
110653Z AUTO 15003KT 10SM BKN013 BKN039 23/21 A2996 RMK AO2 SLP144 T02280206
KBDL 
23nm NE 
110651Z 00000KT 10SM SCT045 SCT070 BKN160 21/17 A2996 RMK AO2 SLP145 T02110167
KDXR 
27nm SW 
110653Z AUTO 00000KT 10SM CLR 22/18 A2998 RMK AO2 SLP145 T02170183
KHVN 
30nm S 
110653Z AUTO 12004KT 10SM SCT042 24/22 A2995 RMK AO2 SLP142 T02440222
TAF
KBDL 
23nm NE 
110539Z 1106/1212 00000KT P6SM BKN050 FM111500 34003KT P6SM BKN150 FM111700 30004KT P6SM SCT150 FM120600 35006KT P6SM BKN070
NOTAMs
Click for the latest NOTAMs
NOTAMs are issued by the DoD/FAA and will open in a separate window not controlled by AirNav.

 

 
 

Would you like to see your business listed on this page?

 If your business provides an interesting product or service to pilots, flight crews, aircraft, or users of the Northfield Heliport, you should consider listing it here.  To start the listing process, click on the button below
 
Add a business
 

Other Pages about Northfield Heliport

Update a link
 
Copyright © AirNav, LLC. All rights reserved. Privacy Policy  Contact